sensor_id;sensor_type;location;lat;lon;timestamp;P1;durP1;ratioP1;P2;durP2;ratioP2
76475;SDS011;65308;50.078;14.854;2023-04-24T00:00:23;10.55;;;6.32;;
76475;SDS011;65308;50.078;14.854;2023-04-24T00:02:51;12.45;;;6.75;;
76475;SDS011;65308;50.078;14.854;2023-04-24T00:05:22;9.63;;;6.10;;
76475;SDS011;65308;50.078;14.854;2023-04-24T00:07:48;10.32;;;5.90;;
76475;SDS011;65308;50.078;14.854;2023-04-24T00:10:17;9.27;;;6.03;;
76475;SDS011;65308;50.078;14.854;2023-04-24T00:12:46;8.27;;;5.53;;
76475;SDS011;65308;50.078;14.854;2023-04-24T00:15:16;9.52;;;5.57;;
76475;SDS011;65308;50.078;14.854;2023-04-24T00:17:50;9.80;;;5.82;;
76475;SDS011;65308;50.078;14.854;2023-04-24T00:20:22;8.25;;;5.40;;
76475;SDS011;65308;50.078;14.854;2023-04-24T00:22:49;8.55;;;5.80;;
76475;SDS011;65308;50.078;14.854;2023-04-24T00:25:16;7.85;;;5.50;;
76475;SDS011;65308;50.078;14.854;2023-04-24T00:27:43;10.30;;;6.00;;
76475;SDS011;65308;50.078;14.854;2023-04-24T00:30:13;7.95;;;5.25;;
76475;SDS011;65308;50.078;14.854;2023-04-24T00:32:41;7.60;;;5.00;;
76475;SDS011;65308;50.078;14.854;2023-04-24T00:35:11;7.85;;;5.28;;
76475;SDS011;65308;50.078;14.854;2023-04-24T00:37:44;9.02;;;5.30;;
76475;SDS011;65308;50.078;14.854;2023-04-24T00:42:41;9.85;;;4.93;;
76475;SDS011;65308;50.078;14.854;2023-04-24T00:45:11;8.80;;;5.32;;
76475;SDS011;65308;50.078;14.854;2023-04-24T00:47:38;7.97;;;5.53;;
76475;SDS011;65308;50.078;14.854;2023-04-24T00:50:05;8.57;;;5.53;;
76475;SDS011;65308;50.078;14.854;2023-04-24T00:52:33;9.48;;;5.55;;
76475;SDS011;65308;50.078;14.854;2023-04-24T00:54:59;9.13;;;5.55;;
76475;SDS011;65308;50.078;14.854;2023-04-24T00:57:26;8.25;;;4.97;;
76475;SDS011;65308;50.078;14.854;2023-04-24T00:59:53;8.52;;;5.35;;
76475;SDS011;65308;50.078;14.854;2023-04-24T01:02:22;8.50;;;5.65;;
76475;SDS011;65308;50.078;14.854;2023-04-24T01:04:49;6.60;;;4.90;;
76475;SDS011;65308;50.078;14.854;2023-04-24T01:07:17;7.90;;;4.95;;
76475;SDS011;65308;50.078;14.854;2023-04-24T01:09:46;6.88;;;4.93;;
76475;SDS011;65308;50.078;14.854;2023-04-24T01:12:16;7.63;;;4.70;;
76475;SDS011;65308;50.078;14.854;2023-04-24T01:14:43;7.63;;;3.97;;
76475;SDS011;65308;50.078;14.854;2023-04-24T01:17:10;6.18;;;4.07;;
76475;SDS011;65308;50.078;14.854;2023-04-24T01:19:38;6.38;;;4.10;;
76475;SDS011;65308;50.078;14.854;2023-04-24T01:22:09;6.45;;;3.85;;
76475;SDS011;65308;50.078;14.854;2023-04-24T01:24:37;6.22;;;4.00;;
76475;SDS011;65308;50.078;14.854;2023-04-24T01:27:04;5.38;;;3.58;;
76475;SDS011;65308;50.078;14.854;2023-04-24T01:29:31;6.07;;;3.67;;
76475;SDS011;65308;50.078;14.854;2023-04-24T01:31:58;7.18;;;4.13;;
76475;SDS011;65308;50.078;14.854;2023-04-24T01:34:24;6.28;;;3.47;;
76475;SDS011;65308;50.078;14.854;2023-04-24T01:36:51;5.07;;;3.00;;
76475;SDS011;65308;50.078;14.854;2023-04-24T01:39:20;4.75;;;3.22;;
76475;SDS011;65308;50.078;14.854;2023-04-24T01:41:48;4.85;;;3.05;;
76475;SDS011;65308;50.078;14.854;2023-04-24T01:44:15;6.53;;;4.10;;
76475;SDS011;65308;50.078;14.854;2023-04-24T01:46:42;7.35;;;4.45;;
76475;SDS011;65308;50.078;14.854;2023-04-24T01:49:09;6.93;;;4.35;;
76475;SDS011;65308;50.078;14.854;2023-04-24T01:51:36;6.55;;;4.03;;
76475;SDS011;65308;50.078;14.854;2023-04-24T01:54:02;7.32;;;4.50;;
76475;SDS011;65308;50.078;14.854;2023-04-24T01:58:59;9.25;;;5.45;;
76475;SDS011;65308;50.078;14.854;2023-04-24T02:01:26;7.88;;;5.15;;
76475;SDS011;65308;50.078;14.854;2023-04-24T02:03:53;8.35;;;5.13;;
76475;SDS011;65308;50.078;14.854;2023-04-24T02:06:21;7.15;;;4.80;;
76475;SDS011;65308;50.078;14.854;2023-04-24T02:08:48;8.35;;;5.82;;
76475;SDS011;65308;50.078;14.854;2023-04-24T02:11:15;10.25;;;5.35;;
76475;SDS011;65308;50.078;14.854;2023-04-24T02:13:43;8.88;;;5.50;;
76475;SDS011;65308;50.078;14.854;2023-04-24T02:16:10;10.43;;;5.97;;
76475;SDS011;65308;50.078;14.854;2023-04-24T02:18:36;10.60;;;5.63;;
76475;SDS011;65308;50.078;14.854;2023-04-24T02:21:03;8.85;;;5.47;;
76475;SDS011;65308;50.078;14.854;2023-04-24T02:23:33;9.85;;;5.30;;
76475;SDS011;65308;50.078;14.854;2023-04-24T02:26:03;7.30;;;4.97;;
76475;SDS011;65308;50.078;14.854;2023-04-24T02:28:30;9.38;;;5.20;;
76475;SDS011;65308;50.078;14.854;2023-04-24T02:30:59;8.57;;;5.13;;
76475;SDS011;65308;50.078;14.854;2023-04-24T02:33:25;7.80;;;5.20;;
76475;SDS011;65308;50.078;14.854;2023-04-24T02:35:52;9.13;;;5.25;;
76475;SDS011;65308;50.078;14.854;2023-04-24T02:38:18;7.88;;;4.80;;
76475;SDS011;65308;50.078;14.854;2023-04-24T02:40:45;9.70;;;5.20;;
76475;SDS011;65308;50.078;14.854;2023-04-24T02:43:12;7.38;;;5.05;;
76475;SDS011;65308;50.078;14.854;2023-04-24T02:45:38;8.02;;;4.70;;
76475;SDS011;65308;50.078;14.854;2023-04-24T02:48:06;8.95;;;5.30;;
76475;SDS011;65308;50.078;14.854;2023-04-24T02:50:33;7.07;;;4.20;;
76475;SDS011;65308;50.078;14.854;2023-04-24T02:53:00;5.78;;;3.67;;
76475;SDS011;65308;50.078;14.854;2023-04-24T02:55:26;7.18;;;4.40;;
76475;SDS011;65308;50.078;14.854;2023-04-24T02:57:53;7.43;;;4.57;;
76475;SDS011;65308;50.078;14.854;2023-04-24T03:00:20;7.38;;;4.32;;
76475;SDS011;65308;50.078;14.854;2023-04-24T03:02:47;7.10;;;4.50;;
76475;SDS011;65308;50.078;14.854;2023-04-24T03:05:15;8.05;;;4.80;;
76475;SDS011;65308;50.078;14.854;2023-04-24T03:07:42;7.57;;;5.18;;
76475;SDS011;65308;50.078;14.854;2023-04-24T03:10:09;9.18;;;5.50;;
76475;SDS011;65308;50.078;14.854;2023-04-24T03:12:36;8.27;;;5.22;;
76475;SDS011;65308;50.078;14.854;2023-04-24T03:15:03;7.53;;;5.05;;
76475;SDS011;65308;50.078;14.854;2023-04-24T03:17:30;9.05;;;5.63;;
76475;SDS011;65308;50.078;14.854;2023-04-24T03:19:59;8.40;;;5.45;;
76475;SDS011;65308;50.078;14.854;2023-04-24T03:29:55;7.60;;;4.63;;
76475;SDS011;65308;50.078;14.854;2023-04-24T03:32:25;7.28;;;4.78;;
76475;SDS011;65308;50.078;14.854;2023-04-24T03:34:51;6.68;;;3.83;;
76475;SDS011;65308;50.078;14.854;2023-04-24T03:37:18;5.10;;;3.33;;
76475;SDS011;65308;50.078;14.854;2023-04-24T03:39:45;6.50;;;4.18;;
76475;SDS011;65308;50.078;14.854;2023-04-24T03:42:11;5.93;;;3.78;;
76475;SDS011;65308;50.078;14.854;2023-04-24T03:44:38;5.53;;;3.75;;
76475;SDS011;65308;50.078;14.854;2023-04-24T03:47:11;5.15;;;3.50;;
76475;SDS011;65308;50.078;14.854;2023-04-24T03:49:37;7.68;;;3.00;;
76475;SDS011;65308;50.078;14.854;2023-04-24T03:52:04;3.95;;;2.50;;
76475;SDS011;65308;50.078;14.854;2023-04-24T03:54:30;4.93;;;3.00;;
76475;SDS011;65308;50.078;14.854;2023-04-24T03:56:57;6.47;;;3.25;;
76475;SDS011;65308;50.078;14.854;2023-04-24T03:59:24;5.20;;;3.30;;
76475;SDS011;65308;50.078;14.854;2023-04-24T04:01:51;6.32;;;4.03;;
76475;SDS011;65308;50.078;14.854;2023-04-24T04:04:19;6.10;;;3.92;;
76475;SDS011;65308;50.078;14.854;2023-04-24T04:06:46;8.48;;;3.78;;
76475;SDS011;65308;50.078;14.854;2023-04-24T04:09:15;7.57;;;4.22;;
76475;SDS011;65308;50.078;14.854;2023-04-24T04:11:42;6.60;;;4.20;;
76475;SDS011;65308;50.078;14.854;2023-04-24T04:14:09;8.63;;;5.13;;
76475;SDS011;65308;50.078;14.854;2023-04-24T04:16:35;7.68;;;4.97;;
76475;SDS011;65308;50.078;14.854;2023-04-24T04:19:02;6.20;;;3.60;;
76475;SDS011;65308;50.078;14.854;2023-04-24T04:21:31;7.90;;;5.40;;
76475;SDS011;65308;50.078;14.854;2023-04-24T04:23:59;8.52;;;4.75;;
76475;SDS011;65308;50.078;14.854;2023-04-24T04:26:29;8.40;;;5.18;;
76475;SDS011;65308;50.078;14.854;2023-04-24T04:28:57;7.85;;;4.78;;
76475;SDS011;65308;50.078;14.854;2023-04-24T04:31:25;11.07;;;6.40;;
76475;SDS011;65308;50.078;14.854;2023-04-24T04:33:52;13.52;;;7.18;;
76475;SDS011;65308;50.078;14.854;2023-04-24T04:36:19;11.95;;;6.63;;
76475;SDS011;65308;50.078;14.854;2023-04-24T04:38:50;13.82;;;7.20;;
76475;SDS011;65308;50.078;14.854;2023-04-24T04:41:17;9.07;;;5.72;;
76475;SDS011;65308;50.078;14.854;2023-04-24T04:43:45;8.00;;;4.80;;
76475;SDS011;65308;50.078;14.854;2023-04-24T04:46:36;6.90;;;3.30;;
76475;SDS011;65308;50.078;14.854;2023-04-24T04:49:12;7.28;;;3.90;;
76475;SDS011;65308;50.078;14.854;2023-04-24T04:51:43;6.22;;;3.40;;
76475;SDS011;65308;50.078;14.854;2023-04-24T04:59:32;6.70;;;3.35;;
76475;SDS011;65308;50.078;14.854;2023-04-24T05:02:03;4.72;;;3.30;;
76475;SDS011;65308;50.078;14.854;2023-04-24T05:04:34;6.38;;;3.53;;
76475;SDS011;65308;50.078;14.854;2023-04-24T07:55:04;4.25;;;2.60;;
76475;SDS011;65308;50.078;14.854;2023-04-24T07:57:34;5.60;;;3.83;;
76475;SDS011;65308;50.078;14.854;2023-04-24T08:00:05;8.18;;;7.05;;
76475;SDS011;65308;50.078;14.854;2023-04-24T08:02:58;14.80;;;13.27;;
76475;SDS011;65308;50.078;14.854;2023-04-24T08:05:34;16.83;;;15.23;;
76475;SDS011;65308;50.078;14.854;2023-04-24T08:08:13;17.45;;;15.75;;
76475;SDS011;65308;50.078;14.854;2023-04-24T08:20:48;4.53;;;2.83;;
76475;SDS011;65308;50.078;14.854;2023-04-24T08:23:19;5.43;;;2.70;;
76475;SDS011;65308;50.078;14.854;2023-04-24T08:25:50;4.45;;;2.75;;
76475;SDS011;65308;50.078;14.854;2023-04-24T08:28:34;4.32;;;2.92;;
76475;SDS011;65308;50.078;14.854;2023-04-24T08:31:06;4.53;;;3.00;;
76475;SDS011;65308;50.078;14.854;2023-04-24T08:36:21;7.60;;;5.50;;
76475;SDS011;65308;50.078;14.854;2023-04-24T08:38:50;7.03;;;5.28;;
76475;SDS011;65308;50.078;14.854;2023-04-24T08:41:22;11.07;;;9.77;;
76475;SDS011;65308;50.078;14.854;2023-04-24T08:43:51;13.43;;;7.65;;
76475;SDS011;65308;50.078;14.854;2023-04-24T08:46:32;8.27;;;6.20;;
76475;SDS011;65308;50.078;14.854;2023-04-24T08:49:22;7.65;;;5.70;;
76475;SDS011;65308;50.078;14.854;2023-04-24T08:57:08;6.65;;;5.03;;
76475;SDS011;65308;50.078;14.854;2023-04-24T08:59:40;6.75;;;3.80;;
76475;SDS011;65308;50.078;14.854;2023-04-24T09:02:11;6.78;;;3.67;;
76475;SDS011;65308;50.078;14.854;2023-04-24T09:04:43;4.93;;;3.00;;
76475;SDS011;65308;50.078;14.854;2023-04-24T09:07:18;4.53;;;2.75;;
76475;SDS011;65308;50.078;14.854;2023-04-24T09:09:52;4.15;;;2.28;;
76475;SDS011;65308;50.078;14.854;2023-04-24T09:19:59;6.20;;;2.85;;
76475;SDS011;65308;50.078;14.854;2023-04-24T09:22:45;5.43;;;2.80;;
76475;SDS011;65308;50.078;14.854;2023-04-24T09:25:13;5.68;;;2.90;;
76475;SDS011;65308;50.078;14.854;2023-04-24T09:27:41;4.90;;;2.40;;
76475;SDS011;65308;50.078;14.854;2023-04-24T09:30:11;4.95;;;2.83;;
76475;SDS011;65308;50.078;14.854;2023-04-24T09:32:44;4.47;;;2.08;;
76475;SDS011;65308;50.078;14.854;2023-04-24T09:35:14;3.10;;;2.03;;
76475;SDS011;65308;50.078;14.854;2023-04-24T09:37:44;2.60;;;1.70;;
76475;SDS011;65308;50.078;14.854;2023-04-24T09:40:15;3.45;;;1.73;;
76475;SDS011;65308;50.078;14.854;2023-04-24T09:42:44;4.47;;;2.28;;
76475;SDS011;65308;50.078;14.854;2023-04-24T09:45:14;4.50;;;2.50;;
76475;SDS011;65308;50.078;14.854;2023-04-24T09:47:42;5.40;;;3.08;;
76475;SDS011;65308;50.078;14.854;2023-04-24T09:55:32;8.55;;;3.88;;
76475;SDS011;65308;50.078;14.854;2023-04-24T09:57:59;5.07;;;2.75;;
76475;SDS011;65308;50.078;14.854;2023-04-24T10:00:31;5.93;;;3.38;;
76475;SDS011;65308;50.078;14.854;2023-04-24T10:02:59;5.45;;;3.00;;
76475;SDS011;65308;50.078;14.854;2023-04-24T10:05:30;5.68;;;3.03;;
76475;SDS011;65308;50.078;14.854;2023-04-24T10:08:02;3.83;;;2.20;;
76475;SDS011;65308;50.078;14.854;2023-04-24T10:10:33;4.10;;;2.40;;
76475;SDS011;65308;50.078;14.854;2023-04-24T10:13:03;3.22;;;2.00;;
76475;SDS011;65308;50.078;14.854;2023-04-24T10:15:31;3.28;;;1.70;;
76475;SDS011;65308;50.078;14.854;2023-04-24T10:18:00;3.75;;;1.85;;
76475;SDS011;65308;50.078;14.854;2023-04-24T10:20:31;3.00;;;1.75;;
76475;SDS011;65308;50.078;14.854;2023-04-24T10:22:59;4.55;;;1.75;;
76475;SDS011;65308;50.078;14.854;2023-04-24T10:25:28;5.15;;;2.25;;
76475;SDS011;65308;50.078;14.854;2023-04-24T10:48:34;3.38;;;2.10;;
76475;SDS011;65308;50.078;14.854;2023-04-24T10:51:03;4.10;;;1.90;;
76475;SDS011;65308;50.078;14.854;2023-04-24T10:53:34;3.20;;;2.20;;
76475;SDS011;65308;50.078;14.854;2023-04-24T10:56:03;3.30;;;2.28;;
76475;SDS011;65308;50.078;14.854;2023-04-24T10:58:38;4.38;;;2.20;;
76475;SDS011;65308;50.078;14.854;2023-04-24T11:01:11;4.13;;;2.35;;
76475;SDS011;65308;50.078;14.854;2023-04-24T11:03:57;4.07;;;2.40;;
76475;SDS011;65308;50.078;14.854;2023-04-24T11:06:34;4.13;;;2.83;;
76475;SDS011;65308;50.078;14.854;2023-04-24T11:09:12;8.98;;;5.53;;
76475;SDS011;65308;50.078;14.854;2023-04-24T11:11:44;3.15;;;2.40;;
76475;SDS011;65308;50.078;14.854;2023-04-24T11:14:27;3.55;;;2.50;;
76475;SDS011;65308;50.078;14.854;2023-04-24T11:16:58;3.13;;;2.38;;
76475;SDS011;65308;50.078;14.854;2023-04-24T11:24:39;3.55;;;2.65;;
76475;SDS011;65308;50.078;14.854;2023-04-24T11:27:20;3.75;;;2.92;;
76475;SDS011;65308;50.078;14.854;2023-04-24T11:30:17;3.85;;;2.50;;
76475;SDS011;65308;50.078;14.854;2023-04-24T12:03:58;3.22;;;1.80;;
76475;SDS011;65308;50.078;14.854;2023-04-24T12:06:28;3.65;;;1.73;;
76475;SDS011;65308;50.078;14.854;2023-04-24T12:09:07;2.92;;;1.88;;
76475;SDS011;65308;50.078;14.854;2023-04-24T12:11:37;3.85;;;2.00;;
76475;SDS011;65308;50.078;14.854;2023-04-24T12:14:20;2.95;;;1.88;;
76475;SDS011;65308;50.078;14.854;2023-04-24T12:16:51;3.42;;;1.75;;
76475;SDS011;65308;50.078;14.854;2023-04-24T12:29:31;2.88;;;1.80;;
76475;SDS011;65308;50.078;14.854;2023-04-24T12:32:00;5.38;;;2.88;;
76475;SDS011;65308;50.078;14.854;2023-04-24T12:34:31;4.00;;;2.05;;
76475;SDS011;65308;50.078;14.854;2023-04-24T12:37:09;3.95;;;1.80;;
76475;SDS011;65308;50.078;14.854;2023-04-24T12:39:37;4.00;;;1.80;;
76475;SDS011;65308;50.078;14.854;2023-04-24T12:42:05;4.45;;;2.10;;
76475;SDS011;65308;50.078;14.854;2023-04-24T12:52:17;5.25;;;2.30;;
76475;SDS011;65308;50.078;14.854;2023-04-24T12:54:46;6.47;;;2.50;;
76475;SDS011;65308;50.078;14.854;2023-04-24T12:57:41;4.78;;;2.10;;
76475;SDS011;65308;50.078;14.854;2023-04-24T13:00:14;4.35;;;1.83;;
76475;SDS011;65308;50.078;14.854;2023-04-24T13:02:42;4.63;;;2.05;;
76475;SDS011;65308;50.078;14.854;2023-04-24T13:05:12;4.85;;;2.10;;
76475;SDS011;65308;50.078;14.854;2023-04-24T13:13:10;2.70;;;1.40;;
76475;SDS011;65308;50.078;14.854;2023-04-24T13:15:38;3.03;;;1.40;;
76475;SDS011;65308;50.078;14.854;2023-04-24T13:18:06;3.65;;;1.70;;
76475;SDS011;65308;50.078;14.854;2023-04-24T13:20:37;6.13;;;2.40;;
76475;SDS011;65308;50.078;14.854;2023-04-24T13:23:10;7.05;;;2.40;;
76475;SDS011;65308;50.078;14.854;2023-04-24T13:30:52;4.63;;;1.80;;
76475;SDS011;65308;50.078;14.854;2023-04-24T13:33:45;5.50;;;2.60;;
76475;SDS011;65308;50.078;14.854;2023-04-24T13:36:34;6.55;;;3.03;;
76475;SDS011;65308;50.078;14.854;2023-04-24T13:49:10;2.33;;;1.30;;
76475;SDS011;65308;50.078;14.854;2023-04-24T13:51:38;3.90;;;1.80;;
76475;SDS011;65308;50.078;14.854;2023-04-24T13:54:06;3.83;;;1.70;;
76475;SDS011;65308;50.078;14.854;2023-04-24T13:59:12;3.10;;;1.42;;
76475;SDS011;65308;50.078;14.854;2023-04-24T14:01:53;4.32;;;1.80;;
76475;SDS011;65308;50.078;14.854;2023-04-24T16:43:39;3.20;;;2.20;;
76475;SDS011;65308;50.078;14.854;2023-04-24T16:46:12;2.40;;;1.50;;
76475;SDS011;65308;50.078;14.854;2023-04-24T16:48:55;3.78;;;1.70;;
76475;SDS011;65308;50.078;14.854;2023-04-24T16:51:38;2.83;;;1.60;;
76475;SDS011;65308;50.078;14.854;2023-04-24T16:54:09;3.10;;;1.75;;
76475;SDS011;65308;50.078;14.854;2023-04-24T16:56:37;4.78;;;1.90;;
76475;SDS011;65308;50.078;14.854;2023-04-24T17:01:42;3.67;;;1.80;;
76475;SDS011;65308;50.078;14.854;2023-04-24T17:04:11;3.50;;;1.50;;
76475;SDS011;65308;50.078;14.854;2023-04-24T17:06:47;2.22;;;1.42;;
76475;SDS011;65308;50.078;14.854;2023-04-24T17:09:22;3.47;;;1.60;;
76475;SDS011;65308;50.078;14.854;2023-04-24T17:12:11;2.70;;;1.70;;
76475;SDS011;65308;50.078;14.854;2023-04-24T17:35:14;2.33;;;1.50;;
76475;SDS011;65308;50.078;14.854;2023-04-24T17:37:52;3.55;;;1.60;;
76475;SDS011;65308;50.078;14.854;2023-04-24T17:40:35;2.45;;;1.50;;
76475;SDS011;65308;50.078;14.854;2023-04-24T17:43:04;3.05;;;1.60;;
76475;SDS011;65308;50.078;14.854;2023-04-24T17:45:49;3.38;;;1.60;;
76475;SDS011;65308;50.078;14.854;2023-04-24T17:48:36;2.53;;;1.60;;
76475;SDS011;65308;50.078;14.854;2023-04-24T17:51:22;2.85;;;1.70;;
76475;SDS011;65308;50.078;14.854;2023-04-24T17:56:36;2.92;;;1.60;;
76475;SDS011;65308;50.078;14.854;2023-04-24T17:59:05;2.10;;;1.40;;
76475;SDS011;65308;50.078;14.854;2023-04-24T18:01:48;2.38;;;1.60;;
76475;SDS011;65308;50.078;14.854;2023-04-24T18:09:54;3.17;;;1.50;;
76475;SDS011;65308;50.078;14.854;2023-04-24T18:12:20;2.42;;;1.50;;
76475;SDS011;65308;50.078;14.854;2023-04-24T18:14:47;3.10;;;1.65;;
76475;SDS011;65308;50.078;14.854;2023-04-24T18:17:14;1.95;;;1.40;;
76475;SDS011;65308;50.078;14.854;2023-04-24T18:19:43;2.22;;;1.65;;
76475;SDS011;65308;50.078;14.854;2023-04-24T18:22:12;2.80;;;1.80;;
76475;SDS011;65308;50.078;14.854;2023-04-24T18:24:42;4.00;;;2.28;;
76475;SDS011;65308;50.078;14.854;2023-04-24T18:27:09;5.22;;;2.92;;
76475;SDS011;65308;50.078;14.854;2023-04-24T18:29:36;5.10;;;2.40;;
76475;SDS011;65308;50.078;14.854;2023-04-24T18:32:14;7.68;;;2.88;;
76475;SDS011;65308;50.078;14.854;2023-04-24T18:34:56;5.35;;;2.55;;
76475;SDS011;65308;50.078;14.854;2023-04-24T18:37:32;5.22;;;2.40;;
76475;SDS011;65308;50.078;14.854;2023-04-24T18:40:16;4.05;;;2.50;;
76475;SDS011;65308;50.078;14.854;2023-04-24T18:42:59;6.13;;;2.80;;
76475;SDS011;65308;50.078;14.854;2023-04-24T18:45:29;5.45;;;2.40;;
76475;SDS011;65308;50.078;14.854;2023-04-24T18:47:56;4.75;;;2.67;;
76475;SDS011;65308;50.078;14.854;2023-04-24T18:50:22;3.72;;;2.33;;
76475;SDS011;65308;50.078;14.854;2023-04-24T18:52:54;4.53;;;2.50;;
76475;SDS011;65308;50.078;14.854;2023-04-24T18:55:25;6.00;;;2.60;;
76475;SDS011;65308;50.078;14.854;2023-04-24T18:57:59;3.88;;;2.53;;
76475;SDS011;65308;50.078;14.854;2023-04-24T19:00:25;4.47;;;2.45;;
76475;SDS011;65308;50.078;14.854;2023-04-24T19:02:57;3.80;;;2.40;;
76475;SDS011;65308;50.078;14.854;2023-04-24T19:05:31;5.20;;;2.60;;
76475;SDS011;65308;50.078;14.854;2023-04-24T19:08:05;6.78;;;3.88;;
76475;SDS011;65308;50.078;14.854;2023-04-24T20:04:32;6.63;;;3.00;;
76475;SDS011;65308;50.078;14.854;2023-04-24T20:09:47;4.78;;;3.00;;
76475;SDS011;65308;50.078;14.854;2023-04-24T20:15:13;4.88;;;2.83;;
76475;SDS011;65308;50.078;14.854;2023-04-24T20:17:57;4.00;;;2.58;;
76475;SDS011;65308;50.078;14.854;2023-04-24T20:23:33;5.53;;;2.85;;
76475;SDS011;65308;50.078;14.854;2023-04-24T20:25:59;3.97;;;2.22;;
76475;SDS011;65308;50.078;14.854;2023-04-24T20:28:29;4.30;;;2.58;;
76475;SDS011;65308;50.078;14.854;2023-04-24T20:33:23;4.63;;;2.25;;
76475;SDS011;65308;50.078;14.854;2023-04-24T20:35:52;3.88;;;2.13;;
76475;SDS011;65308;50.078;14.854;2023-04-24T20:40:58;7.95;;;4.32;;
76475;SDS011;65308;50.078;14.854;2023-04-24T20:43:34;5.45;;;3.00;;
76475;SDS011;65308;50.078;14.854;2023-04-24T20:48:37;6.28;;;2.85;;
76475;SDS011;65308;50.078;14.854;2023-04-24T20:51:03;4.68;;;2.42;;
76475;SDS011;65308;50.078;14.854;2023-04-24T20:53:30;3.83;;;2.50;;
76475;SDS011;65308;50.078;14.854;2023-04-24T20:58:31;5.88;;;2.90;;
76475;SDS011;65308;50.078;14.854;2023-04-24T21:00:58;5.47;;;3.40;;
76475;SDS011;65308;50.078;14.854;2023-04-24T21:03:24;4.57;;;3.22;;
76475;SDS011;65308;50.078;14.854;2023-04-24T21:05:51;4.20;;;2.80;;
76475;SDS011;65308;50.078;14.854;2023-04-24T21:08:17;3.88;;;2.60;;
76475;SDS011;65308;50.078;14.854;2023-04-24T21:10:44;4.03;;;2.20;;
76475;SDS011;65308;50.078;14.854;2023-04-24T21:13:11;4.43;;;2.17;;
76475;SDS011;65308;50.078;14.854;2023-04-24T21:15:40;3.60;;;2.10;;
76475;SDS011;65308;50.078;14.854;2023-04-24T21:18:08;3.72;;;2.00;;
76475;SDS011;65308;50.078;14.854;2023-04-24T21:20:35;3.60;;;2.28;;
76475;SDS011;65308;50.078;14.854;2023-04-24T21:23:02;5.18;;;2.83;;
76475;SDS011;65308;50.078;14.854;2023-04-24T21:25:29;4.10;;;2.58;;
76475;SDS011;65308;50.078;14.854;2023-04-24T21:27:56;5.20;;;2.50;;
76475;SDS011;65308;50.078;14.854;2023-04-24T21:30:24;3.97;;;2.60;;
76475;SDS011;65308;50.078;14.854;2023-04-24T21:32:52;4.13;;;2.40;;
76475;SDS011;65308;50.078;14.854;2023-04-24T21:35:20;5.50;;;2.92;;
76475;SDS011;65308;50.078;14.854;2023-04-24T21:37:46;4.47;;;2.50;;
76475;SDS011;65308;50.078;14.854;2023-04-24T21:40:13;5.38;;;2.53;;
76475;SDS011;65308;50.078;14.854;2023-04-24T21:42:41;5.22;;;2.42;;
76475;SDS011;65308;50.078;14.854;2023-04-24T21:45:09;4.13;;;2.55;;
76475;SDS011;65308;50.078;14.854;2023-04-24T21:47:38;4.15;;;2.40;;
76475;SDS011;65308;50.078;14.854;2023-04-24T21:52:40;5.22;;;2.70;;
76475;SDS011;65308;50.078;14.854;2023-04-24T21:55:08;4.07;;;2.38;;
76475;SDS011;65308;50.078;14.854;2023-04-24T21:57:41;3.72;;;2.38;;
76475;SDS011;65308;50.078;14.854;2023-04-24T22:00:08;4.82;;;2.28;;
76475;SDS011;65308;50.078;14.854;2023-04-24T22:02:41;4.07;;;2.47;;
76475;SDS011;65308;50.078;14.854;2023-04-24T22:05:17;4.90;;;2.35;;
76475;SDS011;65308;50.078;14.854;2023-04-24T22:10:34;5.10;;;2.45;;
76475;SDS011;65308;50.078;14.854;2023-04-24T22:13:02;3.92;;;2.20;;
76475;SDS011;65308;50.078;14.854;2023-04-24T22:15:40;4.75;;;2.60;;
76475;SDS011;65308;50.078;14.854;2023-04-24T22:18:16;3.70;;;2.38;;
76475;SDS011;65308;50.078;14.854;2023-04-24T22:20:54;3.90;;;2.30;;
76475;SDS011;65308;50.078;14.854;2023-04-24T22:23:28;4.63;;;2.53;;
76475;SDS011;65308;50.078;14.854;2023-04-24T22:25:57;3.85;;;2.40;;
76475;SDS011;65308;50.078;14.854;2023-04-24T22:28:24;5.35;;;2.70;;
76475;SDS011;65308;50.078;14.854;2023-04-24T22:30:51;3.83;;;2.50;;
76475;SDS011;65308;50.078;14.854;2023-04-24T22:33:19;4.88;;;2.60;;
76475;SDS011;65308;50.078;14.854;2023-04-24T22:35:46;5.50;;;2.85;;
76475;SDS011;65308;50.078;14.854;2023-04-24T22:38:16;4.18;;;2.50;;
76475;SDS011;65308;50.078;14.854;2023-04-24T22:41:02;4.35;;;2.50;;
76475;SDS011;65308;50.078;14.854;2023-04-24T22:43:29;4.32;;;2.63;;
76475;SDS011;65308;50.078;14.854;2023-04-24T22:45:56;5.00;;;2.60;;
76475;SDS011;65308;50.078;14.854;2023-04-24T22:48:23;3.95;;;2.30;;
76475;SDS011;65308;50.078;14.854;2023-04-24T22:51:04;4.10;;;2.53;;
76475;SDS011;65308;50.078;14.854;2023-04-24T22:53:34;3.80;;;2.50;;
76475;SDS011;65308;50.078;14.854;2023-04-24T22:56:03;3.20;;;2.03;;
76475;SDS011;65308;50.078;14.854;2023-04-24T22:58:30;4.20;;;2.40;;
76475;SDS011;65308;50.078;14.854;2023-04-24T23:00:57;5.03;;;2.28;;
76475;SDS011;65308;50.078;14.854;2023-04-24T23:03:24;5.18;;;2.60;;
76475;SDS011;65308;50.078;14.854;2023-04-24T23:05:51;3.92;;;2.17;;
76475;SDS011;65308;50.078;14.854;2023-04-24T23:08:17;3.88;;;2.20;;
76475;SDS011;65308;50.078;14.854;2023-04-24T23:10:44;3.97;;;2.50;;
76475;SDS011;65308;50.078;14.854;2023-04-24T23:15:43;4.05;;;2.50;;
76475;SDS011;65308;50.078;14.854;2023-04-24T23:18:10;3.83;;;2.65;;
76475;SDS011;65308;50.078;14.854;2023-04-24T23:20:37;4.60;;;2.60;;
76475;SDS011;65308;50.078;14.854;2023-04-24T23:23:04;4.13;;;2.40;;
76475;SDS011;65308;50.078;14.854;2023-04-24T23:25:31;4.20;;;2.55;;
76475;SDS011;65308;50.078;14.854;2023-04-24T23:27:58;4.65;;;2.55;;
76475;SDS011;65308;50.078;14.854;2023-04-24T23:30:25;4.25;;;2.45;;
76475;SDS011;65308;50.078;14.854;2023-04-24T23:32:55;5.22;;;2.47;;
76475;SDS011;65308;50.078;14.854;2023-04-24T23:35:23;3.72;;;2.33;;
76475;SDS011;65308;50.078;14.854;2023-04-24T23:37:51;4.03;;;2.33;;
76475;SDS011;65308;50.078;14.854;2023-04-24T23:40:18;5.43;;;2.63;;
76475;SDS011;65308;50.078;14.854;2023-04-24T23:45:11;3.65;;;2.33;;
76475;SDS011;65308;50.078;14.854;2023-04-24T23:47:38;4.05;;;2.40;;
76475;SDS011;65308;50.078;14.854;2023-04-24T23:50:06;4.07;;;2.40;;
76475;SDS011;65308;50.078;14.854;2023-04-24T23:52:34;4.65;;;2.80;;
76475;SDS011;65308;50.078;14.854;2023-04-24T23:55:00;4.60;;;2.60;;
76475;SDS011;65308;50.078;14.854;2023-04-24T23:57:28;4.30;;;2.40;;
76475;SDS011;65308;50.078;14.854;2023-04-24T23:59:56;4.15;;;2.50;;
